Time;durP1;ratioP1;P1;durP2;ratioP2;P2;SDS_P1;SDS_P2;PMS_P1;PMS_P2;Temp;Humidity;BMP_temperature;BMP_pressure;BME280_temperature;BME280_humidity;BME280_pressure;Samples;Min_cycle;Max_cycle;Signal;HPM_P1;HPM_P2
2022/04/18 00:00:54;;;;;;;3.57;3.27;;;;;19.10;100977.00;;;;2078468;28;20277;-45
2022/04/18 00:01:54;;;;;;;3.17;2.80;;;;;19.10;100965.00;;;;2073621;28;20218;-47
2022/04/18 00:02:55;;;;;;;3.30;3.00;;;;;19.10;100966.00;;;;2070434;28;20226;-46
2022/04/18 00:03:55;;;;;;;3.47;3.17;;;;;19.10;100967.00;;;;2070582;28;20304;-45
2022/04/18 00:04:56;;;;;;;2.83;2.63;;;;;19.10;100970.00;;;;2070349;28;20218;-45
2022/04/18 00:05:56;;;;;;;3.23;2.93;;;;;19.10;100974.00;;;;2069221;28;20848;-45
2022/04/18 00:06:56;;;;;;;2.87;2.63;;;;;19.10;100970.00;;;;2070255;28;20222;-47
2022/04/18 00:07:56;;;;;;;3.70;3.40;;;;;19.10;100971.00;;;;2070211;28;20761;-47
2022/04/18 00:08:57;;;;;;;3.20;2.90;;;;;19.10;100964.00;;;;2073764;28;20219;-45
2022/04/18 00:09:57;;;;;;;2.97;2.70;;;;;19.10;100957.00;;;;2078314;28;20228;-46
2022/04/18 00:10:58;;;;;;;3.57;3.27;;;;;19.10;100963.00;;;;2078447;28;20312;-45
2022/04/18 00:11:58;;;;;;;3.83;3.40;;;;;19.10;100968.00;;;;2072331;28;20211;-48
2022/04/18 00:12:58;;;;;;;3.13;2.83;;;;;19.10;100966.00;;;;2069687;28;20568;-46
2022/04/18 00:13:59;;;;;;;3.23;3.00;;;;;19.10;100961.00;;;;2070152;28;20757;-45
2022/04/18 00:14:59;;;;;;;4.30;2.83;;;;;19.10;100959.00;;;;2070394;28;20633;-46
2022/04/18 00:15:59;;;;;;;3.50;3.20;;;;;19.10;100957.00;;;;2069696;28;20215;-46
2022/04/18 00:17:00;;;;;;;3.27;3.03;;;;;19.10;100958.00;;;;2070184;28;20752;-45
2022/04/18 00:18:00;;;;;;;3.40;3.10;;;;;19.10;100956.00;;;;2069480;28;20202;-47
2022/04/18 00:19:01;;;;;;;3.53;3.23;;;;;19.10;100952.00;;;;2070120;28;20552;-46
2022/04/18 00:20:01;;;;;;;3.50;3.20;;;;;19.10;100958.00;;;;2070707;28;20214;-47
2022/04/18 00:21:01;;;;;;;3.10;2.77;;;;;19.10;100954.00;;;;2070898;28;20880;-45
2022/04/18 00:22:03;;;;;;;2.90;2.67;;;;;19.10;100958.00;;;;2070534;28;20230;-45
2022/04/18 00:23:03;;;;;;;3.35;3.05;;;;;19.10;100900.00;;;;2070811;28;20271;-44
2022/04/18 00:24:04;;;;;;;3.33;3.03;;;;;19.10;100943.00;;;;2070865;28;20226;-45
2022/04/18 00:25:04;;;;;;;3.40;3.10;;;;;19.10;100954.00;;;;2070545;28;20214;-45
2022/04/18 00:26:05;;;;;;;3.30;3.00;;;;;19.10;100952.00;;;;2069804;28;20793;-45
2022/04/18 00:27:05;;;;;;;3.07;2.87;;;;;19.10;100959.00;;;;2070319;28;20225;-45
2022/04/18 00:28:06;;;;;;;3.70;2.93;;;;;19.10;100953.00;;;;2070450;28;20222;-46
2022/04/18 00:29:06;;;;;;;3.70;3.40;;;;;19.10;100946.00;;;;2070615;28;20218;-45
2022/04/18 00:30:07;;;;;;;3.60;3.10;;;;;19.10;100954.00;;;;2070666;28;20310;-45
2022/04/18 00:31:07;;;;;;;3.13;2.93;;;;;19.10;100955.00;;;;2070695;28;20233;-45
2022/04/18 00:32:08;;;;;;;3.73;3.37;;;;;19.10;100936.00;;;;2069964;28;20310;-45
2022/04/18 00:33:09;;;;;;;3.33;3.03;;;;;19.10;100949.00;;;;2069954;28;20218;-45
2022/04/18 00:34:09;;;;;;;3.40;3.10;;;;;19.10;100942.00;;;;2070535;28;20293;-47
2022/04/18 00:35:10;;;;;;;3.37;3.13;;;;;19.10;100950.00;;;;2069969;28;20218;-45
2022/04/18 00:36:10;;;;;;;3.60;3.30;;;;;19.10;100939.00;;;;2069087;28;20647;-46
2022/04/18 00:37:10;;;;;;;3.03;2.80;;;;;19.10;100945.00;;;;2070591;28;20228;-46
2022/04/18 00:38:11;;;;;;;3.10;2.90;;;;;19.10;100943.00;;;;2068881;28;20222;-45
2022/04/18 00:39:11;;;;;;;3.47;3.17;;;;;19.10;100947.00;;;;2070702;28;20226;-45
2022/04/18 00:40:12;;;;;;;3.50;3.20;;;;;19.10;100945.00;;;;2070551;28;20214;-45
2022/04/18 00:41:13;;;;;;;3.20;2.90;;;;;19.10;100950.00;;;;2070805;28;20305;-45
2022/04/18 00:42:13;;;;;;;3.07;2.87;;;;;19.10;100946.00;;;;2070587;28;20774;-46
2022/04/18 00:43:13;;;;;;;3.10;2.90;;;;;19.10;100941.00;;;;2070455;28;20742;-45
2022/04/18 00:44:14;;;;;;;3.20;3.00;;;;;19.10;100938.00;;;;2070547;28;20710;-45
2022/04/18 00:45:14;;;;;;;3.53;3.23;;;;;19.10;100943.00;;;;2070716;28;20248;-45
2022/04/18 00:46:15;;;;;;;3.17;2.90;;;;;19.10;100948.00;;;;2069876;28;20225;-47
2022/04/18 00:47:16;;;;;;;3.50;3.20;;;;;19.10;100938.00;;;;2069045;28;20238;-45
2022/04/18 00:48:16;;;;;;;3.20;2.90;;;;;19.10;100939.00;;;;2070531;28;20268;-44
2022/04/18 00:49:16;;;;;;;3.23;2.93;;;;;19.10;100945.00;;;;2069449;28;20245;-46
2022/04/18 00:50:17;;;;;;;3.43;3.13;;;;;19.10;100946.00;;;;2069794;28;20217;-45
2022/04/18 00:51:20;;;;;;;3.10;2.90;;;;;19.10;100944.00;;;;2078164;28;20232;-46
2022/04/18 00:52:20;;;;;;;3.50;3.20;;;;;19.00;100944.00;;;;2078682;28;20325;-46
2022/04/18 00:53:21;;;;;;;2.90;2.70;;;;;19.10;100939.00;;;;2078217;28;20269;-46
2022/04/18 00:54:21;;;;;;;3.53;3.20;;;;;19.10;100943.00;;;;2070070;28;20214;-46
2022/04/18 00:55:22;;;;;;;3.20;3.00;;;;;19.10;100939.00;;;;2077599;28;20701;-46
2022/04/18 00:56:22;;;;;;;3.40;3.10;;;;;19.00;100935.00;;;;2069590;28;20213;-45
2022/04/18 00:57:23;;;;;;;2.90;2.70;;;;;19.10;100933.00;;;;2069758;28;20206;-47
2022/04/18 00:58:23;;;;;;;3.00;2.80;;;;;19.10;100947.00;;;;2066891;28;20857;-46
2022/04/18 00:59:23;;;;;;;3.00;2.70;;;;;19.10;100933.00;;;;2061798;28;20270;-47
2022/04/18 01:00:24;;;;;;;2.83;2.63;;;;;19.10;100932.00;;;;2070303;28;20222;-48
2022/04/18 01:01:24;;;;;;;3.40;3.00;;;;;19.00;100935.00;;;;2070588;28;20234;-47
2022/04/18 01:02:25;;;;;;;3.57;3.27;;;;;19.10;100933.00;;;;2070750;28;20629;-47
2022/04/18 01:03:25;;;;;;;3.70;3.40;;;;;19.00;100937.00;;;;2070637;28;20241;-47
2022/04/18 01:04:26;;;;;;;3.77;3.00;;;;;19.10;100937.00;;;;2069967;28;20226;-47
2022/04/18 01:05:26;;;;;;;3.40;3.00;;;;;19.10;100930.00;;;;2075301;28;20214;-47
2022/04/18 01:06:26;;;;;;;3.10;2.80;;;;;19.00;100930.00;;;;2079575;28;20206;-47
2022/04/18 01:07:27;;;;;;;2.90;2.70;;;;;19.10;100924.00;;;;2071418;28;20218;-47
2022/04/18 01:08:28;;;;;;;3.20;2.93;;;;;19.10;100921.00;;;;2071610;28;20261;-47
2022/04/18 01:09:28;;;;;;;3.83;3.47;;;;;19.10;100922.00;;;;2080553;28;20216;-48
2022/04/18 01:10:29;;;;;;;3.40;3.00;;;;;19.00;100922.00;;;;2080109;28;20225;-47
2022/04/18 01:11:29;;;;;;;3.47;3.17;;;;;19.00;100923.00;;;;2080139;28;20217;-47
2022/04/18 01:12:29;;;;;;;3.07;2.80;;;;;19.00;100922.00;;;;2080177;28;20293;-47
2022/04/18 01:13:30;;;;;;;3.20;2.90;;;;;18.50;100922.00;;;;2075231;28;20209;-47
2022/04/18 01:14:30;;;;;;;3.10;2.90;;;;;19.00;100925.00;;;;2072085;28;20217;-47
2022/04/18 01:15:30;;;;;;;3.13;2.83;;;;;19.00;100922.00;;;;2071520;28;20217;-46
2022/04/18 01:16:31;;;;;;;2.87;2.67;;;;;19.00;100926.00;;;;2071110;28;20229;-47
2022/04/18 01:17:31;;;;;;;3.50;3.20;;;;;19.10;100923.00;;;;2071989;28;20206;-47
2022/04/18 01:18:31;;;;;;;2.90;2.70;;;;;19.00;100919.00;;;;2072189;28;20210;-47
2022/04/18 01:19:32;;;;;;;3.07;2.87;;;;;19.00;100918.00;;;;2072263;28;20216;-47
2022/04/18 01:20:36;;;;;;;2.97;2.77;;;;;19.00;100924.00;;;;2072019;28;20202;-47
2022/04/18 01:21:37;;;;;;;2.92;2.72;;;;;19.00;100921.00;;;;2072322;28;20296;-47
2022/04/18 01:22:37;;;;;;;3.40;2.93;;;;;19.00;100902.00;;;;2072166;28;20868;-47
2022/04/18 01:23:37;;;;;;;3.27;2.67;;;;;19.00;100912.00;;;;2064995;28;20221;-47
2022/04/18 01:29:54;;;;;;;3.33;3.03;;;;;19.00;100912.00;;;;2081807;28;20288;-51
2022/04/18 01:30:54;;;;;;;3.20;2.90;;;;;19.00;100918.00;;;;2080283;28;20213;-48
2022/04/18 01:31:55;;;;;;;2.90;2.70;;;;;19.00;100911.00;;;;2079314;28;20569;-47
2022/04/18 01:32:55;;;;;;;2.97;2.70;;;;;19.00;100906.00;;;;2080248;28;20229;-47
2022/04/18 01:33:55;;;;;;;3.53;3.23;;;;;19.00;100914.00;;;;2079788;28;20216;-47
2022/04/18 01:34:57;;;;;;;4.30;3.17;;;;;19.00;100917.00;;;;2079848;28;20225;-47
2022/04/18 01:35:57;;;;;;;3.00;2.70;;;;;19.00;100907.00;;;;2074633;28;20213;-47
2022/04/18 01:36:58;;;;;;;3.00;2.80;;;;;18.80;100914.00;;;;2071969;28;20221;-47
2022/04/18 01:37:58;;;;;;;3.30;3.00;;;;;19.00;100909.00;;;;2072176;28;20230;-47
2022/04/18 01:38:58;;;;;;;3.17;2.87;;;;;19.00;100905.00;;;;2071979;28;20271;-47
2022/04/18 01:39:59;;;;;;;3.03;2.83;;;;;19.00;100911.00;;;;2071840;28;20230;-47
2022/04/18 01:40:59;;;;;;;3.30;3.00;;;;;19.00;100914.00;;;;2071964;28;20217;-47
2022/04/18 01:41:59;;;;;;;3.10;2.90;;;;;19.00;100909.00;;;;2071547;28;20276;-47
2022/04/18 01:43:00;;;;;;;2.97;2.67;;;;;19.00;100917.00;;;;2072059;28;20234;-47
2022/04/18 01:44:00;;;;;;;2.70;2.50;;;;;18.80;100917.00;;;;2071974;28;20210;-47
2022/04/18 01:45:00;;;;;;;2.83;2.63;;;;;19.00;100909.00;;;;2071475;28;20221;-47
2022/04/18 01:46:01;;;;;;;2.70;2.50;;;;;19.00;100912.00;;;;2070787;28;20776;-47
2022/04/18 01:47:01;;;;;;;2.67;2.47;;;;;19.00;100909.00;;;;2071372;28;20206;-47
2022/04/18 01:48:02;;;;;;;3.17;2.87;;;;;19.00;100912.00;;;;2071287;28;21005;-47
2022/04/18 01:49:02;;;;;;;2.70;2.50;;;;;19.00;100904.00;;;;2071292;28;20218;-47
2022/04/18 01:50:03;;;;;;;3.13;2.83;;;;;19.00;100908.00;;;;2071326;28;20245;-47
2022/04/18 01:51:03;;;;;;;3.20;2.90;;;;;19.00;100908.00;;;;2071474;28;20305;-47
2022/04/18 01:52:03;;;;;;;3.07;2.80;;;;;19.00;100910.00;;;;2071362;28;20210;-47
2022/04/18 01:53:04;;;;;;;2.53;2.33;;;;;19.00;100898.00;;;;2071452;28;20214;-46
2022/04/18 01:54:04;;;;;;;3.10;2.90;;;;;19.00;100904.00;;;;2071254;28;20211;-47
2022/04/18 01:55:05;;;;;;;3.10;2.90;;;;;19.00;100897.00;;;;2071188;28;20221;-47
2022/04/18 01:56:05;;;;;;;3.00;2.60;;;;;19.00;100901.00;;;;2070234;28;20229;-47
2022/04/18 01:57:06;;;;;;;2.97;2.67;;;;;19.00;100908.00;;;;2071101;28;20464;-47
2022/04/18 01:58:08;;;;;;;3.47;3.17;;;;;19.00;100902.00;;;;2071541;28;20705;-47
2022/04/18 01:59:08;;;;;;;2.75;2.55;;;;;19.00;100899.00;;;;2074633;28;20205;-46
2022/04/18 02:00:09;;;;;;;3.13;2.90;;;;;19.00;100902.00;;;;2080058;28;20291;-47
2022/04/18 02:01:10;;;;;;;2.63;2.42;;;;;19.00;100896.00;;;;2071973;28;20214;-47
2022/04/18 02:02:10;;;;;;;3.80;3.40;;;;;19.00;100898.00;;;;2071850;28;20264;-47
2022/04/18 02:03:11;;;;;;;3.13;2.83;;;;;19.00;100899.00;;;;2071880;28;20544;-46
2022/04/18 02:04:11;;;;;;;3.07;2.77;;;;;19.00;100897.00;;;;2070812;28;20206;-47
2022/04/18 02:05:11;;;;;;;3.13;2.87;;;;;19.00;100897.00;;;;2071245;28;20218;-46
2022/04/18 02:06:12;;;;;;;3.13;2.83;;;;;19.00;100893.00;;;;2070658;28;20309;-46
2022/04/18 02:07:12;;;;;;;2.73;2.53;;;;;19.00;100900.00;;;;2071093;28;20218;-47
2022/04/18 02:08:12;;;;;;;3.00;2.70;;;;;19.00;100896.00;;;;2071476;28;20265;-47
2022/04/18 02:09:13;;;;;;;2.50;2.30;;;;;19.00;100900.00;;;;2071376;28;20218;-46
2022/04/18 02:10:13;;;;;;;3.50;3.20;;;;;19.00;100898.00;;;;2064971;28;20218;-47
2022/04/18 02:11:14;;;;;;;3.20;2.50;;;;;19.00;100899.00;;;;2086815;28;20224;-47
2022/04/18 02:12:14;;;;;;;3.00;2.80;;;;;19.00;100899.00;;;;2083717;28;20219;-47
2022/04/18 02:13:15;;;;;;;2.90;2.70;;;;;19.00;100896.00;;;;2079206;28;20205;-47
2022/04/18 02:14:15;;;;;;;3.03;2.80;;;;;19.00;100901.00;;;;2074908;28;20213;-47
2022/04/18 02:15:16;;;;;;;2.90;2.63;;;;;19.00;100894.00;;;;2071661;28;20214;-47
2022/04/18 02:16:16;;;;;;;3.00;2.70;;;;;19.00;100888.00;;;;2070798;28;20252;-47
2022/04/18 02:17:16;;;;;;;3.47;2.93;;;;;19.00;100892.00;;;;2071558;28;20216;-47
2022/04/18 02:18:17;;;;;;;2.73;2.53;;;;;19.00;100892.00;;;;2070588;28;20305;-47
2022/04/18 02:19:17;;;;;;;3.20;2.50;;;;;19.00;100892.00;;;;2079944;28;20244;-47
2022/04/18 02:20:17;;;;;;;2.47;2.27;;;;;19.00;100889.00;;;;2079785;28;20259;-47
2022/04/18 02:21:19;;;;;;;3.23;2.93;;;;;19.00;100895.00;;;;2079909;28;20256;-47
2022/04/18 02:22:23;;;;;;;2.65;2.45;;;;;19.00;100895.00;;;;2079650;28;20236;-47
2022/04/18 02:23:23;;;;;;;2.70;2.50;;;;;19.00;100891.00;;;;2079723;28;20216;-47
2022/04/18 02:24:23;;;;;;;2.97;2.77;;;;;19.00;100891.00;;;;2079771;28;20579;-47
2022/04/18 02:25:24;;;;;;;2.70;2.50;;;;;19.00;100886.00;;;;2079036;28;20236;-47
2022/04/18 02:26:24;;;;;;;3.03;2.70;;;;;19.00;100890.00;;;;2074689;28;20658;-46
2022/04/18 02:27:25;;;;;;;2.47;2.27;;;;;19.00;100886.00;;;;2071609;28;20685;-47
2022/04/18 02:28:25;;;;;;;2.70;2.50;;;;;18.60;100886.00;;;;2071433;28;20248;-47
2022/04/18 02:29:26;;;;;;;2.43;2.23;;;;;19.00;100876.00;;;;2071479;28;20214;-47
2022/04/18 02:30:26;;;;;;;3.07;2.77;;;;;19.00;100882.00;;;;2071466;28;20218;-47
2022/04/18 02:31:26;;;;;;;2.67;2.47;;;;;19.00;100885.00;;;;2071627;28;20271;-47
2022/04/18 02:33:45;;;;;;;2.83;2.63;;;;;19.00;100885.00;;;;2079780;28;20292;-47
2022/04/18 02:34:46;;;;;;;2.97;2.77;;;;;19.00;100885.00;;;;2079589;28;20202;-47
2022/04/18 02:35:46;;;;;;;2.80;2.50;;;;;19.00;100886.00;;;;2078518;28;20206;-47
2022/04/18 02:36:46;;;;;;;2.60;2.40;;;;;19.00;100883.00;;;;2071294;28;20236;-47
2022/04/18 02:37:47;;;;;;;3.00;2.77;;;;;19.00;100885.00;;;;2071396;28;20206;-47
2022/04/18 02:38:47;;;;;;;3.40;2.67;;;;;19.00;100886.00;;;;2071578;28;20677;-47
2022/04/18 02:39:47;;;;;;;2.40;2.20;;;;;19.00;100881.00;;;;2071374;28;20210;-47
2022/04/18 02:40:48;;;;;;;3.20;2.90;;;;;19.00;100881.00;;;;2071315;28;20206;-47
2022/04/18 02:41:48;;;;;;;3.00;2.70;;;;;19.00;100876.00;;;;2071047;28;20202;-47
2022/04/18 02:42:49;;;;;;;2.77;2.50;;;;;19.00;100873.00;;;;2077281;28;20768;-47
2022/04/18 02:43:49;;;;;;;2.67;2.47;;;;;19.00;100879.00;;;;2078925;28;20675;-46
2022/04/18 02:44:49;;;;;;;2.80;2.60;;;;;19.00;100876.00;;;;2079066;28;20205;-47
2022/04/18 02:45:50;;;;;;;2.80;2.60;;;;;19.00;100872.00;;;;2078571;28;20280;-47
2022/04/18 02:46:50;;;;;;;2.57;2.37;;;;;19.00;100874.00;;;;2078094;28;20300;-47
2022/04/18 02:47:50;;;;;;;2.67;2.47;;;;;19.00;100868.00;;;;2079040;28;20205;-47
2022/04/18 02:48:52;;;;;;;2.73;2.53;;;;;19.00;100869.00;;;;2079110;28;20209;-47
2022/04/18 02:49:53;;;;;;;2.50;2.30;;;;;18.70;100868.00;;;;2078926;28;20720;-47
2022/04/18 02:50:53;;;;;;;2.50;2.30;;;;;19.00;100857.00;;;;2079178;28;20237;-46
2022/04/18 02:51:53;;;;;;;2.50;2.30;;;;;19.00;100870.00;;;;2079245;28;20227;-47
2022/04/18 02:52:54;;;;;;;2.73;2.53;;;;;19.00;100861.00;;;;2070778;28;20222;-47
2022/04/18 02:53:54;;;;;;;2.90;2.70;;;;;19.00;100864.00;;;;2070777;28;20253;-46
2022/04/18 02:54:54;;;;;;;2.60;2.40;;;;;19.00;100851.00;;;;2070911;28;20426;-47
2022/04/18 02:55:55;;;;;;;2.90;2.60;;;;;19.00;100860.00;;;;2076941;28;20213;-47
2022/04/18 02:56:55;;;;;;;2.83;2.63;;;;;19.00;100856.00;;;;2078801;28;20702;-47
2022/04/18 02:57:55;;;;;;;2.30;2.10;;;;;19.00;100854.00;;;;2078925;28;20217;-47
2022/04/18 02:58:56;;;;;;;3.10;2.80;;;;;19.00;100848.00;;;;2079260;28;20282;-47
2022/04/18 02:59:56;;;;;;;3.13;2.67;;;;;19.00;100851.00;;;;2078922;28;20225;-47
2022/04/18 03:00:56;;;;;;;2.50;2.13;;;;;19.00;100850.00;;;;2079035;28;20282;-47
2022/04/18 03:01:57;;;;;;;2.47;2.27;;;;;19.00;100855.00;;;;2078845;28;20217;-46
2022/04/18 03:02:57;;;;;;;2.63;2.43;;;;;19.00;100850.00;;;;2079021;28;20248;-46
2022/04/18 03:03:58;;;;;;;2.67;2.47;;;;;19.00;100846.00;;;;2078923;28;21141;-47
2022/04/18 03:04:58;;;;;;;2.37;2.17;;;;;19.00;100851.00;;;;2075350;28;20784;-47
2022/04/18 03:05:58;;;;;;;2.60;2.40;;;;;19.00;100846.00;;;;2078019;28;20217;-47
2022/04/18 03:07:00;;;;;;;3.00;2.67;;;;;19.00;100835.00;;;;2079001;28;20217;-46
2022/04/18 03:08:00;;;;;;;2.55;2.35;;;;;19.00;100834.00;;;;2079211;28;20222;-47
2022/04/18 03:09:01;;;;;;;2.63;2.30;;;;;19.00;100834.00;;;;2079416;28;20829;-47
2022/04/18 03:10:01;;;;;;;2.40;2.20;;;;;19.00;100836.00;;;;2079290;28;20275;-47
2022/04/18 03:11:05;;;;;;;2.50;2.30;;;;;19.00;100838.00;;;;2079552;28;20217;-46
2022/04/18 03:12:06;;;;;;;2.55;2.35;;;;;19.00;100816.00;;;;2079563;28;20754;-47
2022/04/18 03:13:06;;;;;;;2.95;2.30;;;;;19.00;100837.00;;;;2071046;28;20214;-47
2022/04/18 03:14:07;;;;;;;2.50;2.30;;;;;19.00;100830.00;;;;2070649;28;20301;-47
2022/04/18 03:15:08;;;;;;;2.70;2.50;;;;;18.90;100835.00;;;;2071168;28;20577;-47
2022/04/18 03:16:08;;;;;;;2.50;2.30;;;;;19.00;100837.00;;;;2069696;28;20256;-52
2022/04/18 03:17:09;;;;;;;1.90;1.80;;;;;19.00;100838.00;;;;2070847;28;20214;-50
2022/04/18 03:18:10;;;;;;;2.25;2.05;;;;;18.90;100844.00;;;;2070658;28;20313;-47
2022/04/18 03:19:10;;;;;;;2.63;2.43;;;;;18.90;100835.00;;;;2070685;28;20218;-47
2022/04/18 03:20:11;;;;;;;2.60;2.40;;;;;18.90;100836.00;;;;2071197;28;20214;-47
2022/04/18 03:21:13;;;;;;;2.43;2.03;;;;;19.00;100837.00;;;;2070155;28;20637;-47
2022/04/18 03:22:13;;;;;;;2.50;2.28;;;;;18.90;100828.00;;;;2070469;28;20215;-47
2022/04/18 03:23:13;;;;;;;2.57;2.33;;;;;18.90;100836.00;;;;2071131;28;20221;-47
2022/04/18 03:24:14;;;;;;;2.30;2.13;;;;;18.90;100834.00;;;;2071271;28;20930;-47
2022/04/18 03:25:14;;;;;;;2.23;2.03;;;;;18.90;100833.00;;;;2071146;28;20711;-47
2022/04/18 03:26:14;;;;;;;2.53;2.30;;;;;18.90;100836.00;;;;2070557;28;20261;-47
2022/04/18 03:27:15;;;;;;;2.20;1.93;;;;;19.00;100832.00;;;;2071125;28;20218;-48
2022/04/18 03:28:15;;;;;;;2.43;2.23;;;;;19.00;100830.00;;;;2070917;28;20225;-47
2022/04/18 03:29:15;;;;;;;2.33;2.13;;;;;18.90;100833.00;;;;2069861;28;20238;-47
2022/04/18 03:30:16;;;;;;;2.93;2.57;;;;;19.00;100823.00;;;;2069461;28;20232;-47
2022/04/18 03:31:17;;;;;;;2.50;2.30;;;;;18.90;100836.00;;;;2071067;28;20333;-47
2022/04/18 03:32:17;;;;;;;2.20;2.00;;;;;18.90;100828.00;;;;2071300;28;20460;-47
2022/04/18 03:33:17;;;;;;;2.33;2.13;;;;;19.00;100828.00;;;;2071122;28;20214;-48
2022/04/18 03:34:18;;;;;;;2.07;1.90;;;;;18.90;100838.00;;;;2071146;28;20241;-46
2022/04/18 03:35:18;;;;;;;2.30;2.10;;;;;18.90;100828.00;;;;2070895;28;20218;-47
2022/04/18 03:40:15;;;;;;;2.40;2.20;;;;;18.90;100831.00;;;;2079032;28;20221;-48
2022/04/18 03:41:15;;;;;;;2.03;1.83;;;;;18.90;100831.00;;;;2079180;28;20213;-47
2022/04/18 03:42:16;;;;;;;2.30;2.10;;;;;18.90;100833.00;;;;2079261;28;20214;-47
2022/04/18 03:43:17;;;;;;;2.55;2.30;;;;;18.90;100832.00;;;;2078858;28;20213;-47
2022/04/18 03:44:18;;;;;;;2.70;2.50;;;;;18.90;100825.00;;;;2079140;28;20712;-47
2022/04/18 03:45:18;;;;;;;2.30;1.95;;;;;18.80;100826.00;;;;2078182;28;20582;-47
2022/04/18 03:46:19;;;;;;;1.93;1.83;;;;;18.90;100831.00;;;;2071678;28;20250;-47
2022/04/18 03:47:19;;;;;;;2.10;2.00;;;;;18.90;100832.00;;;;2070439;28;20214;-47
2022/04/18 03:48:19;;;;;;;2.37;2.00;;;;;18.90;100828.00;;;;2070582;28;20233;-47
2022/04/18 03:49:20;;;;;;;2.93;2.20;;;;;18.90;100833.00;;;;2070677;28;20242;-47
2022/04/18 03:50:20;;;;;;;2.27;2.07;;;;;18.90;100826.00;;;;2075925;28;20275;-47
2022/04/18 03:51:21;;;;;;;2.00;1.90;;;;;18.90;100827.00;;;;2078386;28;20223;-47
2022/04/18 03:52:22;;;;;;;2.07;1.90;;;;;18.90;100833.00;;;;2078910;28;20214;-47
2022/04/18 03:53:22;;;;;;;2.25;2.05;;;;;18.90;100825.00;;;;2079117;28;20216;-47
2022/04/18 03:54:23;;;;;;;2.20;2.00;;;;;18.90;100827.00;;;;2078329;28;20304;-47
2022/04/18 03:55:25;;;;;;;2.30;1.83;;;;;18.90;100827.00;;;;2077564;28;20214;-47
2022/04/18 03:56:25;;;;;;;2.30;2.10;;;;;18.90;100829.00;;;;2079123;28;20690;-47
2022/04/18 03:57:26;;;;;;;2.67;2.47;;;;;18.90;100829.00;;;;2078856;28;20202;-47
2022/04/18 03:58:26;;;;;;;2.20;2.00;;;;;18.90;100825.00;;;;2079072;28;20210;-47
2022/04/18 03:59:26;;;;;;;2.20;2.00;;;;;18.90;100817.00;;;;2078153;28;20749;-47
2022/04/18 04:00:27;;;;;;;2.20;1.97;;;;;18.90;100828.00;;;;2078323;28;20260;-47
2022/04/18 04:01:27;;;;;;;2.10;2.00;;;;;18.90;100829.00;;;;2078991;28;20213;-46
2022/04/18 04:02:27;;;;;;;2.43;2.23;;;;;18.90;100823.00;;;;2079286;28;20209;-47
2022/04/18 04:03:28;;;;;;;2.20;1.83;;;;;18.90;100827.00;;;;2079263;28;20213;-47
2022/04/18 04:04:28;;;;;;;2.03;1.83;;;;;18.90;100826.00;;;;2078905;28;20221;-47
2022/04/18 04:05:29;;;;;;;2.37;2.17;;;;;18.90;100822.00;;;;2078049;28;20209;-47
2022/04/18 04:06:29;;;;;;;2.40;2.20;;;;;18.90;100826.00;;;;2078923;28;20210;-46
2022/04/18 04:07:29;;;;;;;2.30;2.10;;;;;18.90;100820.00;;;;2078589;28;20209;-47
2022/04/18 04:08:31;;;;;;;2.30;2.10;;;;;18.90;100826.00;;;;2079055;28;20351;-46
2022/04/18 04:09:33;;;;;;;2.70;2.38;;;;;18.90;100824.00;;;;2079014;28;20765;-45
2022/04/18 04:10:33;;;;;;;2.00;1.80;;;;;18.90;100810.00;;;;2078899;28;20218;-46
2022/04/18 04:11:34;;;;;;;2.20;2.00;;;;;18.90;100825.00;;;;2078936;28;20709;-46
2022/04/18 04:12:34;;;;;;;2.10;1.93;;;;;18.90;100822.00;;;;2078889;28;20245;-47
2022/04/18 04:13:35;;;;;;;2.20;2.00;;;;;18.90;100822.00;;;;2078735;28;20299;-47
2022/04/18 04:14:36;;;;;;;2.20;2.00;;;;;18.90;100825.00;;;;2078777;28;20209;-46
2022/04/18 04:15:36;;;;;;;2.30;2.10;;;;;18.90;100822.00;;;;2078149;28;20435;-47
2022/04/18 04:16:39;;;;;;;2.23;2.03;;;;;18.90;100818.00;;;;2078816;28;20229;-47
2022/04/18 04:17:40;;;;;;;1.70;1.60;;;;;18.90;100825.00;;;;2078692;28;20217;-47
2022/04/18 04:18:40;;;;;;;2.30;2.10;;;;;18.90;100825.00;;;;2077164;28;20299;-47
2022/04/18 04:19:41;;;;;;;1.87;1.77;;;;;18.90;100825.00;;;;2077782;28;20471;-47
2022/04/18 04:20:41;;;;;;;2.40;2.20;;;;;18.90;100826.00;;;;2078848;28;20220;-47
2022/04/18 04:21:41;;;;;;;1.80;1.70;;;;;18.90;100826.00;;;;2078971;28;20210;-47
2022/04/18 04:22:47;;;;;;;1.90;1.80;;;;;18.90;100827.00;;;;2077554;28;20206;-46
2022/04/18 04:23:47;;;;;;;1.80;1.70;;;;;18.90;100827.00;;;;2078066;28;20585;-47
2022/04/18 04:24:47;;;;;;;2.10;1.90;;;;;18.90;100839.00;;;;2078127;28;20220;-47
2022/04/18 04:25:48;;;;;;;1.90;1.70;;;;;18.90;100823.00;;;;2078065;28;20678;-47
2022/04/18 04:26:49;;;;;;;2.20;1.73;;;;;18.90;100822.00;;;;2077877;28;21094;-50
2022/04/18 04:27:49;;;;;;;2.10;1.90;;;;;18.90;100829.00;;;;2078770;28;20639;-47
2022/04/18 04:28:49;;;;;;;2.27;2.00;;;;;18.90;100825.00;;;;2078554;28;20484;-47
2022/04/18 04:29:50;;;;;;;2.03;1.93;;;;;18.90;100826.00;;;;2077167;28;20224;-47
2022/04/18 04:30:50;;;;;;;1.90;1.80;;;;;18.90;100824.00;;;;2077089;28;20229;-47
2022/04/18 04:31:50;;;;;;;1.93;1.70;;;;;18.90;100823.00;;;;2078871;28;20224;-48
2022/04/18 04:32:51;;;;;;;2.53;1.70;;;;;18.90;100824.00;;;;2078786;28;20205;-47
2022/04/18 04:33:51;;;;;;;2.40;2.20;;;;;18.90;100824.00;;;;2078545;28;20220;-47
2022/04/18 04:34:51;;;;;;;2.73;1.80;;;;;18.90;100821.00;;;;2078554;28;20756;-47
2022/04/18 04:35:52;;;;;;;1.50;1.40;;;;;18.90;100815.00;;;;2078199;28;20716;-47
2022/04/18 04:36:52;;;;;;;1.77;1.67;;;;;18.90;100826.00;;;;2078503;28;20220;-47
2022/04/18 04:37:52;;;;;;;1.87;1.63;;;;;18.90;100828.00;;;;2079012;28;20217;-47
2022/04/18 04:38:52;;;;;;;2.20;2.00;;;;;18.90;100816.00;;;;2079003;28;20241;-47
2022/04/18 04:39:53;;;;;;;1.80;1.70;;;;;18.90;100819.00;;;;2078739;28;20217;-47
2022/04/18 04:40:53;;;;;;;1.70;1.60;;;;;18.90;100817.00;;;;2078302;28;20221;-47
2022/04/18 04:41:53;;;;;;;2.30;1.90;;;;;18.90;100825.00;;;;2078972;28;20252;-47
2022/04/18 04:42:54;;;;;;;2.10;1.90;;;;;18.90;100822.00;;;;2078685;28;20216;-47
2022/04/18 04:43:54;;;;;;;2.00;1.80;;;;;18.90;100818.00;;;;2078721;28;20245;-47
2022/04/18 04:44:55;;;;;;;1.80;1.70;;;;;18.90;100819.00;;;;2078704;28;20259;-47
2022/04/18 04:45:55;;;;;;;1.90;1.80;;;;;18.90;100823.00;;;;2077281;28;20218;-47
2022/04/18 04:46:56;;;;;;;2.03;1.80;;;;;18.90;100814.00;;;;2077949;28;20673;-47
2022/04/18 04:47:56;;;;;;;1.90;1.67;;;;;18.90;100821.00;;;;2078823;28;20460;-47
2022/04/18 04:48:57;;;;;;;1.80;1.70;;;;;18.90;100827.00;;;;2078374;28;20228;-47
2022/04/18 04:49:57;;;;;;;1.60;1.50;;;;;18.90;100823.00;;;;2077531;28;20228;-47
2022/04/18 04:50:57;;;;;;;1.60;1.40;;;;;18.90;100827.00;;;;2077772;28;20236;-47
2022/04/18 04:51:58;;;;;;;1.70;1.60;;;;;18.90;100824.00;;;;2078034;28;20213;-47
2022/04/18 04:53:00;;;;;;;1.70;1.60;;;;;18.90;100818.00;;;;2078239;28;20292;-47
2022/04/18 04:54:00;;;;;;;2.25;1.70;;;;;18.90;100824.00;;;;2078499;28;20246;-47
2022/04/18 04:55:01;;;;;;;1.77;1.67;;;;;18.90;100823.00;;;;2078673;28;20218;-47
2022/04/18 04:56:01;;;;;;;1.87;1.70;;;;;18.90;100831.00;;;;2077204;28;20677;-46
2022/04/18 04:57:01;;;;;;;1.70;1.60;;;;;18.90;100826.00;;;;2076481;28;20205;-47
2022/04/18 04:58:02;;;;;;;2.20;1.80;;;;;18.90;100829.00;;;;2073365;28;20202;-47
2022/04/18 04:59:03;;;;;;;2.10;1.80;;;;;18.90;100832.00;;;;2069198;28;20653;-48
2022/04/18 05:00:04;;;;;;;1.90;1.70;;;;;18.90;100834.00;;;;2070103;28;20206;-47
2022/04/18 05:01:05;;;;;;;1.77;1.67;;;;;18.90;100837.00;;;;2069208;28;20461;-47
2022/04/18 05:02:05;;;;;;;1.60;1.50;;;;;18.90;100831.00;;;;2069774;28;20297;-47
2022/04/18 05:03:06;;;;;;;1.90;1.80;;;;;18.90;100837.00;;;;2070496;28;20698;-47
2022/04/18 05:04:07;;;;;;;1.80;1.60;;;;;18.90;100830.00;;;;2070582;28;20655;-47
2022/04/18 05:05:08;;;;;;;1.63;1.50;;;;;18.90;100835.00;;;;2073512;28;20296;-47
2022/04/18 05:06:10;;;;;;;2.10;1.90;;;;;18.90;100843.00;;;;2073816;28;20214;-47
2022/04/18 05:07:11;;;;;;;1.60;1.45;;;;;18.90;100839.00;;;;2070176;28;20218;-47
2022/04/18 05:08:11;;;;;;;1.73;1.60;;;;;18.90;100836.00;;;;2070643;28;20317;-47
2022/04/18 05:09:11;;;;;;;1.83;1.73;;;;;18.90;100836.00;;;;2070506;28;20214;-47
2022/04/18 05:10:12;;;;;;;1.67;1.57;;;;;18.90;100848.00;;;;2070428;28;20758;-46